sensor_id;sensor_type;location;lat;lon;timestamp;P1;durP1;ratioP1;P2;durP2;ratioP2
35518;SDS011;21627;48.216;16.482;2023-04-03T00:01:21;3.38;;;2.88;;
35518;SDS011;21627;48.216;16.482;2023-04-03T00:03:48;6.10;;;3.50;;
35518;SDS011;21627;48.216;16.482;2023-04-03T00:06:16;4.78;;;3.17;;
35518;SDS011;21627;48.216;16.482;2023-04-03T00:08:46;6.05;;;3.65;;
35518;SDS011;21627;48.216;16.482;2023-04-03T00:11:14;5.63;;;3.53;;
35518;SDS011;21627;48.216;16.482;2023-04-03T00:13:41;5.25;;;3.40;;
35518;SDS011;21627;48.216;16.482;2023-04-03T00:16:10;4.18;;;2.72;;
35518;SDS011;21627;48.216;16.482;2023-04-03T00:18:38;6.60;;;3.40;;
35518;SDS011;21627;48.216;16.482;2023-04-03T00:21:06;4.75;;;3.10;;
35518;SDS011;21627;48.216;16.482;2023-04-03T00:23:34;5.40;;;3.45;;
35518;SDS011;21627;48.216;16.482;2023-04-03T00:26:02;5.82;;;3.15;;
35518;SDS011;21627;48.216;16.482;2023-04-03T00:28:29;5.50;;;2.92;;
35518;SDS011;21627;48.216;16.482;2023-04-03T00:30:56;3.83;;;3.30;;
35518;SDS011;21627;48.216;16.482;2023-04-03T00:33:24;4.75;;;2.88;;
35518;SDS011;21627;48.216;16.482;2023-04-03T00:35:51;4.93;;;3.00;;
35518;SDS011;21627;48.216;16.482;2023-04-03T00:38:18;5.55;;;3.33;;
35518;SDS011;21627;48.216;16.482;2023-04-03T00:40:47;5.55;;;2.88;;
35518;SDS011;21627;48.216;16.482;2023-04-03T00:43:17;7.10;;;3.45;;
35518;SDS011;21627;48.216;16.482;2023-04-03T00:45:48;5.25;;;3.50;;
35518;SDS011;21627;48.216;16.482;2023-04-03T00:48:20;4.93;;;3.15;;
35518;SDS011;21627;48.216;16.482;2023-04-03T00:51:18;7.88;;;3.70;;
35518;SDS011;21627;48.216;16.482;2023-04-03T00:56:23;3.40;;;2.75;;
35518;SDS011;21627;48.216;16.482;2023-04-03T00:59:30;4.20;;;2.90;;
35518;SDS011;21627;48.216;16.482;2023-04-03T01:01:53;4.85;;;2.95;;
35518;SDS011;21627;48.216;16.482;2023-04-03T01:04:41;6.20;;;3.38;;
35518;SDS011;21627;48.216;16.482;2023-04-03T01:09:52;4.22;;;3.17;;
35518;SDS011;21627;48.216;16.482;2023-04-03T01:12:26;4.63;;;2.90;;
35518;SDS011;21627;48.216;16.482;2023-04-03T01:15:11;7.40;;;3.15;;
35518;SDS011;21627;48.216;16.482;2023-04-03T01:17:51;6.75;;;3.35;;
35518;SDS011;21627;48.216;16.482;2023-04-03T01:28:13;6.10;;;3.65;;
35518;SDS011;21627;48.216;16.482;2023-04-03T01:30:53;4.55;;;3.03;;
35518;SDS011;21627;48.216;16.482;2023-04-03T01:33:46;6.53;;;3.30;;
35518;SDS011;21627;48.216;16.482;2023-04-03T01:36:15;4.38;;;3.35;;
35518;SDS011;21627;48.216;16.482;2023-04-03T01:38:47;4.35;;;2.75;;
35518;SDS011;21627;48.216;16.482;2023-04-03T01:41:15;5.43;;;3.05;;
35518;SDS011;21627;48.216;16.482;2023-04-03T01:43:43;7.57;;;3.45;;
35518;SDS011;21627;48.216;16.482;2023-04-03T01:46:10;5.10;;;3.10;;
35518;SDS011;21627;48.216;16.482;2023-04-03T01:48:38;7.55;;;2.78;;
35518;SDS011;21627;48.216;16.482;2023-04-03T01:51:05;5.40;;;3.20;;
35518;SDS011;21627;48.216;16.482;2023-04-03T01:53:32;5.60;;;3.13;;
35518;SDS011;21627;48.216;16.482;2023-04-03T01:55:59;7.35;;;3.20;;
35518;SDS011;21627;48.216;16.482;2023-04-03T01:58:27;5.00;;;2.83;;
35518;SDS011;21627;48.216;16.482;2023-04-03T02:00:54;5.25;;;3.03;;
35518;SDS011;21627;48.216;16.482;2023-04-03T02:03:22;4.95;;;3.22;;
35518;SDS011;21627;48.216;16.482;2023-04-03T02:05:49;6.03;;;3.13;;
35518;SDS011;21627;48.216;16.482;2023-04-03T02:08:17;4.70;;;2.90;;
35518;SDS011;21627;48.216;16.482;2023-04-03T02:10:47;4.13;;;2.83;;
35518;SDS011;21627;48.216;16.482;2023-04-03T02:13:15;4.22;;;2.90;;
35518;SDS011;21627;48.216;16.482;2023-04-03T02:15:43;3.88;;;2.50;;
35518;SDS011;21627;48.216;16.482;2023-04-03T02:18:11;4.35;;;2.67;;
35518;SDS011;21627;48.216;16.482;2023-04-03T02:20:42;3.63;;;2.50;;
35518;SDS011;21627;48.216;16.482;2023-04-03T02:23:09;4.28;;;2.47;;
35518;SDS011;21627;48.216;16.482;2023-04-03T02:25:36;3.97;;;2.55;;
35518;SDS011;21627;48.216;16.482;2023-04-03T02:28:04;5.72;;;2.60;;
35518;SDS011;21627;48.216;16.482;2023-04-03T02:30:32;4.40;;;2.33;;
35518;SDS011;21627;48.216;16.482;2023-04-03T02:32:59;3.83;;;2.40;;
35518;SDS011;21627;48.216;16.482;2023-04-03T02:35:27;2.88;;;2.35;;
35518;SDS011;21627;48.216;16.482;2023-04-03T02:37:54;8.52;;;2.65;;
35518;SDS011;21627;48.216;16.482;2023-04-03T02:40:22;4.57;;;1.90;;
35518;SDS011;21627;48.216;16.482;2023-04-03T02:42:51;2.20;;;1.90;;
35518;SDS011;21627;48.216;16.482;2023-04-03T02:45:18;3.10;;;2.25;;
35518;SDS011;21627;48.216;16.482;2023-04-03T02:47:46;3.08;;;2.20;;
35518;SDS011;21627;48.216;16.482;2023-04-03T02:50:13;2.67;;;1.80;;
35518;SDS011;21627;48.216;16.482;2023-04-03T02:52:40;3.72;;;2.00;;
35518;SDS011;21627;48.216;16.482;2023-04-03T02:55:07;1.83;;;1.58;;
35518;SDS011;21627;48.216;16.482;2023-04-03T02:57:35;2.38;;;1.95;;
35518;SDS011;21627;48.216;16.482;2023-04-03T03:00:02;3.50;;;2.13;;
35518;SDS011;21627;48.216;16.482;2023-04-03T03:02:30;2.17;;;1.67;;
35518;SDS011;21627;48.216;16.482;2023-04-03T03:04:58;2.10;;;1.77;;
35518;SDS011;21627;48.216;16.482;2023-04-03T03:07:25;3.35;;;1.63;;
35518;SDS011;21627;48.216;16.482;2023-04-03T03:09:52;4.35;;;1.85;;
35518;SDS011;21627;48.216;16.482;2023-04-03T03:12:19;2.28;;;1.73;;
35518;SDS011;21627;48.216;16.482;2023-04-03T03:14:48;3.53;;;1.92;;
35518;SDS011;21627;48.216;16.482;2023-04-03T03:17:15;3.53;;;1.88;;
35518;SDS011;21627;48.216;16.482;2023-04-03T03:19:43;2.63;;;1.77;;
35518;SDS011;21627;48.216;16.482;2023-04-03T03:22:12;2.42;;;1.80;;
35518;SDS011;21627;48.216;16.482;2023-04-03T03:24:39;5.47;;;2.00;;
35518;SDS011;21627;48.216;16.482;2023-04-03T03:27:06;2.55;;;1.88;;
35518;SDS011;21627;48.216;16.482;2023-04-03T03:29:33;5.85;;;2.00;;
35518;SDS011;21627;48.216;16.482;2023-04-03T03:32:00;3.47;;;1.90;;
35518;SDS011;21627;48.216;16.482;2023-04-03T03:34:28;2.38;;;1.80;;
35518;SDS011;21627;48.216;16.482;2023-04-03T03:36:55;3.75;;;2.33;;
35518;SDS011;21627;48.216;16.482;2023-04-03T03:39:22;2.65;;;1.90;;
35518;SDS011;21627;48.216;16.482;2023-04-03T03:41:49;2.38;;;1.65;;
35518;SDS011;21627;48.216;16.482;2023-04-03T03:44:16;2.72;;;1.88;;
35518;SDS011;21627;48.216;16.482;2023-04-03T03:46:43;2.35;;;1.80;;
35518;SDS011;21627;48.216;16.482;2023-04-03T03:49:11;2.90;;;1.88;;
35518;SDS011;21627;48.216;16.482;2023-04-03T03:51:38;8.82;;;2.15;;
35518;SDS011;21627;48.216;16.482;2023-04-03T03:54:06;4.10;;;1.90;;
35518;SDS011;21627;48.216;16.482;2023-04-03T03:56:34;3.45;;;2.00;;
35518;SDS011;21627;48.216;16.482;2023-04-03T03:59:01;3.83;;;1.73;;
35518;SDS011;21627;48.216;16.482;2023-04-03T04:01:28;2.55;;;2.03;;
35518;SDS011;21627;48.216;16.482;2023-04-03T04:03:56;1.52;;;1.40;;
35518;SDS011;21627;48.216;16.482;2023-04-03T04:06:23;6.63;;;2.10;;
35518;SDS011;21627;48.216;16.482;2023-04-03T04:08:50;2.88;;;1.83;;
35518;SDS011;21627;48.216;16.482;2023-04-03T04:11:17;3.50;;;2.40;;
35518;SDS011;21627;48.216;16.482;2023-04-03T04:13:45;2.40;;;1.70;;
35518;SDS011;21627;48.216;16.482;2023-04-03T04:16:12;2.80;;;2.03;;
35518;SDS011;21627;48.216;16.482;2023-04-03T04:18:39;3.55;;;1.88;;
35518;SDS011;21627;48.216;16.482;2023-04-03T04:21:06;2.78;;;2.17;;
35518;SDS011;21627;48.216;16.482;2023-04-03T04:23:34;4.50;;;2.65;;
35518;SDS011;21627;48.216;16.482;2023-04-03T04:26:01;4.63;;;2.40;;
35518;SDS011;21627;48.216;16.482;2023-04-03T04:28:28;4.45;;;2.55;;
35518;SDS011;21627;48.216;16.482;2023-04-03T04:30:55;3.00;;;2.22;;
35518;SDS011;21627;48.216;16.482;2023-04-03T04:33:22;4.15;;;2.58;;
35518;SDS011;21627;48.216;16.482;2023-04-03T04:35:50;3.05;;;1.92;;
35518;SDS011;21627;48.216;16.482;2023-04-03T04:38:21;5.03;;;2.55;;
35518;SDS011;21627;48.216;16.482;2023-04-03T04:40:48;4.82;;;2.65;;
35518;SDS011;21627;48.216;16.482;2023-04-03T04:43:16;3.20;;;2.03;;
35518;SDS011;21627;48.216;16.482;2023-04-03T04:45:43;4.05;;;2.83;;
35518;SDS011;21627;48.216;16.482;2023-04-03T04:48:10;4.13;;;2.58;;
35518;SDS011;21627;48.216;16.482;2023-04-03T04:50:38;4.07;;;2.80;;
35518;SDS011;21627;48.216;16.482;2023-04-03T04:53:05;4.05;;;2.72;;
35518;SDS011;21627;48.216;16.482;2023-04-03T04:55:32;3.30;;;2.60;;
35518;SDS011;21627;48.216;16.482;2023-04-03T04:58:00;7.70;;;3.28;;
35518;SDS011;21627;48.216;16.482;2023-04-03T05:00:27;3.95;;;3.05;;
35518;SDS011;21627;48.216;16.482;2023-04-03T05:02:54;7.10;;;3.17;;
35518;SDS011;21627;48.216;16.482;2023-04-03T05:05:21;7.18;;;3.17;;
35518;SDS011;21627;48.216;16.482;2023-04-03T05:07:49;6.47;;;3.47;;
35518;SDS011;21627;48.216;16.482;2023-04-03T05:10:16;3.63;;;2.63;;
35518;SDS011;21627;48.216;16.482;2023-04-03T05:12:44;5.55;;;3.22;;
35518;SDS011;21627;48.216;16.482;2023-04-03T05:15:11;4.03;;;2.97;;
35518;SDS011;21627;48.216;16.482;2023-04-03T05:17:38;5.55;;;2.92;;
35518;SDS011;21627;48.216;16.482;2023-04-03T05:20:05;5.43;;;3.53;;
35518;SDS011;21627;48.216;16.482;2023-04-03T05:22:33;6.47;;;3.47;;
35518;SDS011;21627;48.216;16.482;2023-04-03T05:25:01;5.72;;;3.15;;
35518;SDS011;21627;48.216;16.482;2023-04-03T05:27:28;4.72;;;2.67;;
35518;SDS011;21627;48.216;16.482;2023-04-03T05:29:55;5.72;;;3.50;;
35518;SDS011;21627;48.216;16.482;2023-04-03T05:32:23;4.10;;;2.58;;
35518;SDS011;21627;48.216;16.482;2023-04-03T05:34:52;4.22;;;2.92;;
35518;SDS011;21627;48.216;16.482;2023-04-03T05:37:20;7.65;;;3.30;;
35518;SDS011;21627;48.216;16.482;2023-04-03T05:39:47;6.25;;;3.35;;
35518;SDS011;21627;48.216;16.482;2023-04-03T05:42:18;6.00;;;3.45;;
35518;SDS011;21627;48.216;16.482;2023-04-03T05:44:45;7.07;;;3.78;;
35518;SDS011;21627;48.216;16.482;2023-04-03T05:47:13;6.50;;;3.30;;
35518;SDS011;21627;48.216;16.482;2023-04-03T05:49:40;8.25;;;3.40;;
35518;SDS011;21627;48.216;16.482;2023-04-03T05:52:21;8.95;;;3.92;;
35518;SDS011;21627;48.216;16.482;2023-04-03T05:54:55;8.32;;;3.50;;
35518;SDS011;21627;48.216;16.482;2023-04-03T05:57:22;7.63;;;3.30;;
35518;SDS011;21627;48.216;16.482;2023-04-03T05:59:49;6.47;;;3.55;;
35518;SDS011;21627;48.216;16.482;2023-04-03T06:02:17;9.82;;;3.47;;
35518;SDS011;21627;48.216;16.482;2023-04-03T06:04:47;5.47;;;3.33;;
35518;SDS011;21627;48.216;16.482;2023-04-03T06:07:22;11.55;;;3.67;;
35518;SDS011;21627;48.216;16.482;2023-04-03T06:09:55;5.85;;;3.40;;
35518;SDS011;21627;48.216;16.482;2023-04-03T06:12:23;5.95;;;3.28;;
35518;SDS011;21627;48.216;16.482;2023-04-03T06:14:51;8.30;;;3.08;;
35518;SDS011;21627;48.216;16.482;2023-04-03T06:17:18;7.85;;;3.60;;
35518;SDS011;21627;48.216;16.482;2023-04-03T06:19:45;3.92;;;2.90;;
35518;SDS011;21627;48.216;16.482;2023-04-03T06:22:13;5.32;;;3.30;;
35518;SDS011;21627;48.216;16.482;2023-04-03T06:24:41;7.53;;;3.80;;
35518;SDS011;21627;48.216;16.482;2023-04-03T06:27:10;5.55;;;3.03;;
35518;SDS011;21627;48.216;16.482;2023-04-03T06:29:37;7.80;;;3.60;;
35518;SDS011;21627;48.216;16.482;2023-04-03T06:32:04;6.07;;;3.28;;
35518;SDS011;21627;48.216;16.482;2023-04-03T06:34:32;9.27;;;3.63;;
35518;SDS011;21627;48.216;16.482;2023-04-03T06:36:59;6.70;;;3.60;;
35518;SDS011;21627;48.216;16.482;2023-04-03T06:39:27;5.80;;;3.28;;
35518;SDS011;21627;48.216;16.482;2023-04-03T06:41:54;9.07;;;3.33;;
35518;SDS011;21627;48.216;16.482;2023-04-03T06:44:21;7.43;;;3.40;;
35518;SDS011;21627;48.216;16.482;2023-04-03T06:46:48;6.13;;;3.00;;
35518;SDS011;21627;48.216;16.482;2023-04-03T06:49:16;6.00;;;3.65;;
35518;SDS011;21627;48.216;16.482;2023-04-03T06:51:46;9.32;;;3.13;;
35518;SDS011;21627;48.216;16.482;2023-04-03T06:54:13;9.48;;;3.53;;
35518;SDS011;21627;48.216;16.482;2023-04-03T06:56:41;10.65;;;3.67;;
35518;SDS011;21627;48.216;16.482;2023-04-03T06:59:09;7.63;;;2.92;;
35518;SDS011;21627;48.216;16.482;2023-04-03T07:01:36;11.60;;;4.22;;
35518;SDS011;21627;48.216;16.482;2023-04-03T07:04:04;7.38;;;3.72;;
35518;SDS011;21627;48.216;16.482;2023-04-03T07:06:32;6.35;;;3.35;;
35518;SDS011;21627;48.216;16.482;2023-04-03T07:09:00;7.32;;;3.58;;
35518;SDS011;21627;48.216;16.482;2023-04-03T07:11:27;6.85;;;3.25;;
35518;SDS011;21627;48.216;16.482;2023-04-03T07:13:54;9.75;;;4.45;;
35518;SDS011;21627;48.216;16.482;2023-04-03T07:16:24;8.13;;;3.60;;
35518;SDS011;21627;48.216;16.482;2023-04-03T07:18:52;7.18;;;3.33;;
35518;SDS011;21627;48.216;16.482;2023-04-03T07:21:19;6.97;;;3.42;;
35518;SDS011;21627;48.216;16.482;2023-04-03T07:23:46;5.63;;;3.50;;
35518;SDS011;21627;48.216;16.482;2023-04-03T07:26:14;7.70;;;3.35;;
35518;SDS011;21627;48.216;16.482;2023-04-03T07:28:42;10.88;;;4.28;;
35518;SDS011;21627;48.216;16.482;2023-04-03T07:31:11;13.80;;;5.03;;
35518;SDS011;21627;48.216;16.482;2023-04-03T07:33:43;7.40;;;3.60;;
35518;SDS011;21627;48.216;16.482;2023-04-03T07:36:14;9.48;;;3.60;;
35518;SDS011;21627;48.216;16.482;2023-04-03T07:38:45;6.22;;;3.65;;
35518;SDS011;21627;48.216;16.482;2023-04-03T07:41:14;6.20;;;3.20;;
35518;SDS011;21627;48.216;16.482;2023-04-03T07:43:46;5.07;;;3.42;;
35518;SDS011;21627;48.216;16.482;2023-04-03T07:46:16;7.43;;;3.42;;
35518;SDS011;21627;48.216;16.482;2023-04-03T07:48:44;9.57;;;3.65;;
35518;SDS011;21627;48.216;16.482;2023-04-03T07:51:11;7.47;;;3.92;;
35518;SDS011;21627;48.216;16.482;2023-04-03T07:53:39;9.60;;;3.67;;
35518;SDS011;21627;48.216;16.482;2023-04-03T07:56:07;8.68;;;4.25;;
35518;SDS011;21627;48.216;16.482;2023-04-03T07:58:35;7.25;;;3.35;;
35518;SDS011;21627;48.216;16.482;2023-04-03T08:01:03;10.35;;;3.70;;
35518;SDS011;21627;48.216;16.482;2023-04-03T08:03:30;6.03;;;3.17;;
35518;SDS011;21627;48.216;16.482;2023-04-03T08:06:01;6.88;;;3.58;;
35518;SDS011;21627;48.216;16.482;2023-04-03T08:08:41;6.75;;;3.75;;
35518;SDS011;21627;48.216;16.482;2023-04-03T08:11:09;8.20;;;3.33;;
35518;SDS011;21627;48.216;16.482;2023-04-03T08:13:37;14.52;;;3.50;;
35518;SDS011;21627;48.216;16.482;2023-04-03T08:16:09;8.27;;;3.38;;
35518;SDS011;21627;48.216;16.482;2023-04-03T08:18:39;11.80;;;3.70;;
35518;SDS011;21627;48.216;16.482;2023-04-03T08:21:07;9.77;;;3.10;;
35518;SDS011;21627;48.216;16.482;2023-04-03T08:23:40;4.75;;;3.10;;
35518;SDS011;21627;48.216;16.482;2023-04-03T08:26:12;13.45;;;3.88;;
35518;SDS011;21627;48.216;16.482;2023-04-03T08:28:42;6.30;;;3.20;;
35518;SDS011;21627;48.216;16.482;2023-04-03T08:31:10;11.90;;;4.10;;
35518;SDS011;21627;48.216;16.482;2023-04-03T08:33:41;5.38;;;3.22;;
35518;SDS011;21627;48.216;16.482;2023-04-03T08:36:15;7.10;;;3.45;;
35518;SDS011;21627;48.216;16.482;2023-04-03T08:38:47;6.03;;;3.53;;
35518;SDS011;21627;48.216;16.482;2023-04-03T08:41:20;6.95;;;3.45;;
35518;SDS011;21627;48.216;16.482;2023-04-03T08:49:28;6.20;;;2.67;;
35518;SDS011;21627;48.216;16.482;2023-04-03T08:52:18;7.43;;;3.17;;
35518;SDS011;21627;48.216;16.482;2023-04-03T08:55:22;5.10;;;3.30;;
35518;SDS011;21627;48.216;16.482;2023-04-03T08:58:12;5.95;;;3.72;;
35518;SDS011;21627;48.216;16.482;2023-04-03T09:03:20;8.38;;;2.85;;
35518;SDS011;21627;48.216;16.482;2023-04-03T09:17:57;6.38;;;3.20;;
35518;SDS011;21627;48.216;16.482;2023-04-03T09:23:48;8.18;;;3.10;;
35518;SDS011;21627;48.216;16.482;2023-04-03T09:26:29;8.13;;;3.17;;
35518;SDS011;21627;48.216;16.482;2023-04-03T09:29:05;6.20;;;3.00;;
35518;SDS011;21627;48.216;16.482;2023-04-03T09:31:36;5.95;;;3.50;;
35518;SDS011;21627;48.216;16.482;2023-04-03T09:34:10;9.95;;;3.13;;
35518;SDS011;21627;48.216;16.482;2023-04-03T09:36:45;5.72;;;2.72;;
35518;SDS011;21627;48.216;16.482;2023-04-03T09:39:22;7.63;;;3.20;;
35518;SDS011;21627;48.216;16.482;2023-04-03T09:44:26;17.27;;;3.28;;
35518;SDS011;21627;48.216;16.482;2023-04-03T09:46:59;8.45;;;2.92;;
35518;SDS011;21627;48.216;16.482;2023-04-03T09:52:43;4.10;;;2.65;;
35518;SDS011;21627;48.216;16.482;2023-04-03T09:57:40;6.15;;;2.33;;
35518;SDS011;21627;48.216;16.482;2023-04-03T10:00:19;6.45;;;2.58;;
35518;SDS011;21627;48.216;16.482;2023-04-03T10:02:50;6.43;;;3.05;;
35518;SDS011;21627;48.216;16.482;2023-04-03T10:07:52;3.88;;;2.20;;
35518;SDS011;21627;48.216;16.482;2023-04-03T10:10:40;9.35;;;2.83;;
35518;SDS011;21627;48.216;16.482;2023-04-03T10:13:14;3.15;;;2.60;;
35518;SDS011;21627;48.216;16.482;2023-04-03T10:15:50;8.82;;;3.20;;
35518;SDS011;21627;48.216;16.482;2023-04-03T10:18:44;8.85;;;3.05;;
35518;SDS011;21627;48.216;16.482;2023-04-03T10:21:50;4.93;;;3.03;;
35518;SDS011;21627;48.216;16.482;2023-04-03T10:27:29;6.07;;;2.95;;
35518;SDS011;21627;48.216;16.482;2023-04-03T10:30:36;5.30;;;3.13;;
35518;SDS011;21627;48.216;16.482;2023-04-03T10:42:08;8.10;;;2.80;;
35518;SDS011;21627;48.216;16.482;2023-04-03T10:45:13;4.30;;;2.22;;
35518;SDS011;21627;48.216;16.482;2023-04-03T10:48:11;3.05;;;2.28;;
35518;SDS011;21627;48.216;16.482;2023-04-03T10:57:10;5.90;;;2.47;;
35518;SDS011;21627;48.216;16.482;2023-04-03T10:59:44;7.70;;;2.53;;
35518;SDS011;21627;48.216;16.482;2023-04-03T11:02:27;2.83;;;2.17;;
35518;SDS011;21627;48.216;16.482;2023-04-03T11:05:08;4.88;;;2.75;;
35518;SDS011;21627;48.216;16.482;2023-04-03T11:07:53;4.95;;;2.40;;
35518;SDS011;21627;48.216;16.482;2023-04-03T11:10:24;4.38;;;2.65;;
35518;SDS011;21627;48.216;16.482;2023-04-03T11:16:13;5.97;;;3.25;;
35518;SDS011;21627;48.216;16.482;2023-04-03T11:18:57;5.78;;;3.00;;
35518;SDS011;21627;48.216;16.482;2023-04-03T11:21:42;6.15;;;2.40;;
35518;SDS011;21627;48.216;16.482;2023-04-03T11:24:28;6.55;;;3.00;;
35518;SDS011;21627;48.216;16.482;2023-04-03T11:26:59;5.70;;;2.80;;
35518;SDS011;21627;48.216;16.482;2023-04-03T11:29:39;4.57;;;2.50;;
35518;SDS011;21627;48.216;16.482;2023-04-03T11:32:11;3.80;;;2.35;;
35518;SDS011;21627;48.216;16.482;2023-04-03T11:35:23;4.00;;;2.40;;
35518;SDS011;21627;48.216;16.482;2023-04-03T11:37:52;10.23;;;2.80;;
35518;SDS011;21627;48.216;16.482;2023-04-03T11:40:28;6.55;;;2.60;;
35518;SDS011;21627;48.216;16.482;2023-04-03T11:50:58;11.05;;;3.50;;
35518;SDS011;21627;48.216;16.482;2023-04-03T12:01:54;5.82;;;3.13;;
35518;SDS011;21627;48.216;16.482;2023-04-03T12:04:25;9.00;;;3.15;;
35518;SDS011;21627;48.216;16.482;2023-04-03T12:07:01;14.20;;;4.10;;
35518;SDS011;21627;48.216;16.482;2023-04-03T12:15:25;7.28;;;3.00;;
35518;SDS011;21627;48.216;16.482;2023-04-03T12:21:21;4.40;;;2.65;;
35518;SDS011;21627;48.216;16.482;2023-04-03T12:30:05;6.28;;;2.45;;
35518;SDS011;21627;48.216;16.482;2023-04-03T12:45:03;7.50;;;2.50;;
35518;SDS011;21627;48.216;16.482;2023-04-03T12:47:48;4.55;;;2.83;;
35518;SDS011;21627;48.216;16.482;2023-04-03T12:50:35;4.13;;;2.17;;
35518;SDS011;21627;48.216;16.482;2023-04-03T12:53:10;6.30;;;2.80;;
35518;SDS011;21627;48.216;16.482;2023-04-03T12:55:56;4.50;;;2.75;;
35518;SDS011;21627;48.216;16.482;2023-04-03T12:58:44;5.10;;;2.90;;
35518;SDS011;21627;48.216;16.482;2023-04-03T13:01:15;5.97;;;2.40;;
35518;SDS011;21627;48.216;16.482;2023-04-03T13:03:48;4.05;;;2.33;;
35518;SDS011;21627;48.216;16.482;2023-04-03T13:06:21;9.75;;;2.90;;
35518;SDS011;21627;48.216;16.482;2023-04-03T13:08:58;5.50;;;3.00;;
35518;SDS011;21627;48.216;16.482;2023-04-03T13:11:30;3.85;;;2.17;;
35518;SDS011;21627;48.216;16.482;2023-04-03T13:14:12;4.47;;;2.30;;
35518;SDS011;21627;48.216;16.482;2023-04-03T13:16:53;4.78;;;2.30;;
35518;SDS011;21627;48.216;16.482;2023-04-03T13:19:30;4.60;;;2.53;;
35518;SDS011;21627;48.216;16.482;2023-04-03T13:22:01;5.60;;;2.47;;
35518;SDS011;21627;48.216;16.482;2023-04-03T13:24:35;4.40;;;2.15;;
35518;SDS011;21627;48.216;16.482;2023-04-03T13:27:10;5.20;;;2.65;;
35518;SDS011;21627;48.216;16.482;2023-04-03T13:29:39;5.07;;;2.70;;
35518;SDS011;21627;48.216;16.482;2023-04-03T13:32:06;3.47;;;2.35;;
35518;SDS011;21627;48.216;16.482;2023-04-03T13:34:44;7.65;;;2.15;;
35518;SDS011;21627;48.216;16.482;2023-04-03T13:43:06;5.30;;;2.20;;
35518;SDS011;21627;48.216;16.482;2023-04-03T13:56:32;8.02;;;2.70;;
35518;SDS011;21627;48.216;16.482;2023-04-03T14:01:47;5.43;;;2.25;;
35518;SDS011;21627;48.216;16.482;2023-04-03T14:04:21;6.72;;;2.30;;
35518;SDS011;21627;48.216;16.482;2023-04-03T14:06:52;10.15;;;2.25;;
35518;SDS011;21627;48.216;16.482;2023-04-03T14:09:20;3.88;;;2.20;;
35518;SDS011;21627;48.216;16.482;2023-04-03T14:11:50;5.57;;;2.13;;
35518;SDS011;21627;48.216;16.482;2023-04-03T14:14:26;4.60;;;2.03;;
35518;SDS011;21627;48.216;16.482;2023-04-03T14:17:00;3.42;;;1.98;;
35518;SDS011;21627;48.216;16.482;2023-04-03T14:19:51;3.40;;;2.13;;
35518;SDS011;21627;48.216;16.482;2023-04-03T14:24:50;6.18;;;2.55;;
35518;SDS011;21627;48.216;16.482;2023-04-03T14:27:23;2.92;;;2.00;;
35518;SDS011;21627;48.216;16.482;2023-04-03T14:30:06;3.88;;;2.58;;
35518;SDS011;21627;48.216;16.482;2023-04-03T14:32:56;7.95;;;2.75;;
35518;SDS011;21627;48.216;16.482;2023-04-03T14:35:25;5.97;;;2.45;;
35518;SDS011;21627;48.216;16.482;2023-04-03T14:37:53;7.20;;;2.50;;
35518;SDS011;21627;48.216;16.482;2023-04-03T14:40:23;4.90;;;2.42;;
35518;SDS011;21627;48.216;16.482;2023-04-03T14:42:53;5.20;;;1.98;;
35518;SDS011;21627;48.216;16.482;2023-04-03T14:45:21;5.65;;;2.55;;
35518;SDS011;21627;48.216;16.482;2023-04-03T14:47:51;8.02;;;2.75;;
35518;SDS011;21627;48.216;16.482;2023-04-03T14:50:22;4.82;;;2.20;;
35518;SDS011;21627;48.216;16.482;2023-04-03T14:52:53;8.48;;;3.05;;
35518;SDS011;21627;48.216;16.482;2023-04-03T14:55:23;4.95;;;2.45;;
35518;SDS011;21627;48.216;16.482;2023-04-03T14:57:52;4.95;;;2.30;;
35518;SDS011;21627;48.216;16.482;2023-04-03T15:00:20;5.70;;;2.30;;
35518;SDS011;21627;48.216;16.482;2023-04-03T15:02:49;3.67;;;1.65;;
35518;SDS011;21627;48.216;16.482;2023-04-03T15:05:16;4.88;;;2.30;;
35518;SDS011;21627;48.216;16.482;2023-04-03T15:07:50;6.57;;;2.20;;
35518;SDS011;21627;48.216;16.482;2023-04-03T15:10:22;3.85;;;2.33;;
35518;SDS011;21627;48.216;16.482;2023-04-03T15:12:54;3.50;;;2.40;;
35518;SDS011;21627;48.216;16.482;2023-04-03T15:15:22;4.00;;;2.13;;
35518;SDS011;21627;48.216;16.482;2023-04-03T15:17:51;5.90;;;2.50;;
35518;SDS011;21627;48.216;16.482;2023-04-03T15:20:23;4.85;;;2.55;;
35518;SDS011;21627;48.216;16.482;2023-04-03T15:22:54;7.50;;;2.75;;
35518;SDS011;21627;48.216;16.482;2023-04-03T15:25:23;5.68;;;2.72;;
35518;SDS011;21627;48.216;16.482;2023-04-03T15:27:52;6.35;;;2.25;;
35518;SDS011;21627;48.216;16.482;2023-04-03T15:30:21;3.72;;;2.20;;
35518;SDS011;21627;48.216;16.482;2023-04-03T15:32:49;4.65;;;2.17;;
35518;SDS011;21627;48.216;16.482;2023-04-03T15:35:16;4.60;;;2.40;;
35518;SDS011;21627;48.216;16.482;2023-04-03T15:37:44;5.78;;;2.30;;
35518;SDS011;21627;48.216;16.482;2023-04-03T15:40:12;4.20;;;1.95;;
35518;SDS011;21627;48.216;16.482;2023-04-03T15:42:40;5.03;;;2.20;;
35518;SDS011;21627;48.216;16.482;2023-04-03T15:45:08;6.18;;;2.50;;
35518;SDS011;21627;48.216;16.482;2023-04-03T15:47:36;2.58;;;1.90;;
35518;SDS011;21627;48.216;16.482;2023-04-03T15:50:04;5.40;;;2.40;;
35518;SDS011;21627;48.216;16.482;2023-04-03T15:52:34;4.88;;;2.20;;
35518;SDS011;21627;48.216;16.482;2023-04-03T15:55:02;5.22;;;2.10;;
35518;SDS011;21627;48.216;16.482;2023-04-03T15:57:30;5.13;;;2.35;;
35518;SDS011;21627;48.216;16.482;2023-04-03T16:00:02;3.25;;;2.20;;
35518;SDS011;21627;48.216;16.482;2023-04-03T16:02:31;6.35;;;2.65;;
35518;SDS011;21627;48.216;16.482;2023-04-03T16:04:59;3.42;;;2.20;;
35518;SDS011;21627;48.216;16.482;2023-04-03T16:07:27;8.20;;;2.60;;
35518;SDS011;21627;48.216;16.482;2023-04-03T16:09:54;5.97;;;2.78;;
35518;SDS011;21627;48.216;16.482;2023-04-03T16:12:21;5.07;;;2.50;;
35518;SDS011;21627;48.216;16.482;2023-04-03T16:14:48;5.40;;;3.00;;
35518;SDS011;21627;48.216;16.482;2023-04-03T16:17:15;8.48;;;2.50;;
35518;SDS011;21627;48.216;16.482;2023-04-03T16:19:43;6.20;;;2.33;;
35518;SDS011;21627;48.216;16.482;2023-04-03T16:22:10;6.70;;;2.25;;
35518;SDS011;21627;48.216;16.482;2023-04-03T16:24:37;8.52;;;2.55;;
35518;SDS011;21627;48.216;16.482;2023-04-03T16:27:04;5.00;;;2.63;;
35518;SDS011;21627;48.216;16.482;2023-04-03T16:29:31;4.57;;;2.50;;
35518;SDS011;21627;48.216;16.482;2023-04-03T16:31:59;6.13;;;2.65;;
35518;SDS011;21627;48.216;16.482;2023-04-03T16:34:26;4.22;;;2.42;;
35518;SDS011;21627;48.216;16.482;2023-04-03T16:36:55;6.07;;;2.40;;
35518;SDS011;21627;48.216;16.482;2023-04-03T16:39:22;7.30;;;2.75;;
35518;SDS011;21627;48.216;16.482;2023-04-03T16:41:49;5.85;;;2.72;;
35518;SDS011;21627;48.216;16.482;2023-04-03T16:44:17;3.55;;;2.70;;
35518;SDS011;21627;48.216;16.482;2023-04-03T16:46:44;4.90;;;2.33;;
35518;SDS011;21627;48.216;16.482;2023-04-03T16:49:13;5.25;;;2.78;;
35518;SDS011;21627;48.216;16.482;2023-04-03T16:51:41;5.38;;;2.75;;
35518;SDS011;21627;48.216;16.482;2023-04-03T16:54:08;4.47;;;2.65;;
35518;SDS011;21627;48.216;16.482;2023-04-03T16:56:37;5.32;;;2.35;;
35518;SDS011;21627;48.216;16.482;2023-04-03T16:59:05;9.02;;;2.65;;
35518;SDS011;21627;48.216;16.482;2023-04-03T17:01:32;4.00;;;2.63;;
35518;SDS011;21627;48.216;16.482;2023-04-03T17:04:00;4.75;;;2.72;;
35518;SDS011;21627;48.216;16.482;2023-04-03T17:06:27;3.72;;;2.13;;
35518;SDS011;21627;48.216;16.482;2023-04-03T17:08:54;6.13;;;2.65;;
35518;SDS011;21627;48.216;16.482;2023-04-03T17:11:21;4.80;;;2.53;;